Time;durP1;ratioP1;P1;durP2;ratioP2;P2;SDS_P1;SDS_P2;PMS_P1;PMS_P2;Temp;Humidity;BMP_temperature;BMP_pressure;BME280_temperature;BME280_humidity;BME280_pressure;Samples;Min_cycle;Max_cycle;Signal;HPM_P1;HPM_P2
2022/07/09 00:02:24;;;;;;;;;6.00;3.33;;;;;22.48;73.38;100437.47;146622;603;45031;-77
2022/07/09 00:05:17;;;;;;;;;3.33;3.33;;;;;22.46;71.45;100407.53;146618;624;46030;-77
2022/07/09 00:08:09;;;;;;;;;4.00;3.00;;;;;22.52;70.10;100400.50;146618;564;46035;-83
2022/07/09 00:11:01;;;;;;;;;4.33;3.33;;;;;22.57;70.24;100418.97;146622;579;46020;-86
2022/07/09 00:13:53;;;;;;;;;3.67;3.67;;;;;22.59;69.97;100430.41;146620;616;46012;-82
2022/07/09 00:16:46;;;;;;;;;2.00;2.00;;;;;22.62;69.99;100433.06;146621;570;47010;-81
2022/07/09 00:19:37;;;;;;;;;4.00;3.00;;;;;22.56;72.37;100420.72;146619;581;47012;-82
2022/07/09 00:22:31;;;;;;;;;4.00;4.00;;;;;22.45;71.16;100424.28;146624;691;46010;-79
2022/07/09 00:25:23;;;;;;;;;4.00;2.00;;;;;22.30;71.17;100419.87;146620;579;46014;-78
2022/07/09 00:28:15;;;;;;;;;2.00;2.00;;;;;22.25;69.27;100424.31;146622;629;46010;-80
2022/07/09 00:31:07;;;;;;;;;3.00;3.00;;;;;22.22;68.93;100427.84;146618;570;46918;-77
2022/07/09 00:33:59;;;;;;;;;3.33;2.00;;;;;22.16;71.14;100438.41;146620;574;46010;-74
2022/07/09 00:36:51;;;;;;;;;3.00;3.00;;;;;22.08;70.52;100446.28;146620;569;46012;-74
2022/07/09 00:39:43;;;;;;;;;2.00;2.00;;;;;22.08;69.80;100462.12;146622;601;46020;-75
2022/07/09 00:42:36;;;;;;;;;2.00;0.67;;;;;22.18;70.36;100475.34;146617;586;46016;-74
2022/07/09 00:45:28;;;;;;;;;2.33;1.33;;;;;22.24;70.44;100485.94;146622;618;45032;-74
2022/07/09 00:48:20;;;;;;;;;0.33;0.33;;;;;22.27;73.38;100491.22;146618;581;47012;-84
2022/07/09 00:51:16;;;;;;;;;3.00;2.00;;;;;22.26;71.07;100505.31;146620;591;46020;-81
2022/07/09 00:54:08;;;;;;;;;1.00;1.00;;;;;22.27;70.21;100512.34;146620;601;46016;-83
2022/07/09 00:57:01;;;;;;;;;1.00;1.00;;;;;22.26;71.44;100527.31;146622;625;46010;-81
2022/07/09 00:59:53;;;;;;;;;2.00;2.00;;;;;22.23;71.63;100529.06;146618;585;46016;-81
2022/07/09 01:02:46;;;;;;;;;3.00;3.00;;;;;22.17;71.49;100527.31;146619;569;46010;-81
2022/07/09 01:05:38;;;;;;;;;2.00;2.00;;;;;22.12;72.51;100516.72;146619;603;47014;-81
2022/07/09 01:08:30;;;;;;;;;1.67;1.67;;;;;22.06;73.32;100511.44;146624;579;46010;-88
2022/07/09 01:11:22;;;;;;;;;3.00;3.00;;;;;21.95;73.72;100507.00;146621;654;46012;-83
2022/07/09 01:14:14;;;;;;;;;4.33;3.00;;;;;21.83;73.18;100495.53;146623;599;46021;-75
2022/07/09 01:17:09;;;;;;;;;4.00;3.33;;;;;21.71;73.35;100479.69;146619;579;46012;-72
2022/07/09 01:20:01;;;;;;;;;4.00;2.33;;;;;21.60;74.57;100471.75;146622;609;46010;-70
2022/07/09 01:22:54;;;;;;;;;3.00;2.00;;;;;20.91;74.07;100354.66;146616;570;47014;-80
2022/07/09 01:25:47;;;;;;;;;3.00;3.00;;;;;21.39;73.51;100445.31;146622;633;46020;-80
2022/07/09 01:28:39;;;;;;;;;4.00;3.67;;;;;21.34;73.23;100449.66;146618;569;46918;-79
2022/07/09 01:31:31;;;;;;;;;5.00;4.00;;;;;21.32;74.02;100448.81;146619;597;46012;-77
2022/07/09 01:34:23;;;;;;;;;3.00;2.00;;;;;21.29;74.68;100440.87;146619;710;46016;-74
2022/07/09 01:37:15;;;;;;;;;4.00;3.00;;;;;21.26;74.99;100446.16;146622;592;46011;-78
2022/07/09 01:40:07;;;;;;;;;3.67;3.67;;;;;21.28;73.90;100441.72;146619;630;46016;-81
2022/07/09 01:43:00;;;;;;;;;1.00;1.00;;;;;21.37;73.01;100439.16;146623;566;47010;-73
2022/07/09 01:45:52;;;;;;;;;4.25;2.50;;;;;21.53;72.16;100426.91;146620;581;46012;-75
2022/07/09 01:48:44;;;;;;;;;3.00;3.00;;;;;21.70;72.79;100429.56;146621;667;46010;-78
2022/07/09 01:51:39;;;;;;;;;3.00;3.00;;;;;21.86;72.72;100418.12;146619;689;46016;-80
2022/07/09 01:54:32;;;;;;;;;1.00;1.00;;;;;22.00;71.95;100399.66;146623;602;46010;-78
2022/07/09 01:57:23;;;;;;;;;2.00;2.00;;;;;22.13;71.40;100404.03;146618;667;46012;-82
2022/07/09 02:00:18;;;;;;;;;2.00;2.00;;;;;22.25;71.30;100408.47;146617;575;46021;-88
2022/07/09 02:03:10;;;;;;;;;2.00;2.00;;;;;22.33;73.46;100402.28;146621;565;46012;-91
2022/07/09 02:06:03;;;;;;;;;4.00;2.67;;;;;22.31;72.96;100387.34;146622;610;46010;-87
2022/07/09 02:08:55;;;;;;;;;3.00;3.00;;;;;22.22;71.65;100400.56;146613;604;47014;-76
2022/07/09 02:11:48;;;;;;;;;4.67;3.33;;;;;22.18;71.47;100420.81;146622;578;46010;-76
2022/07/09 02:14:40;;;;;;;;;4.00;4.00;;;;;22.25;71.70;100421.69;146616;647;47014;-79
2022/07/09 02:17:32;;;;;;;;;4.00;4.00;;;;;22.37;72.05;100414.62;146618;658;46916;-80
2022/07/09 02:20:24;;;;;;;;;5.75;5.75;;;;;22.43;71.32;100408.44;146619;655;47012;-75
2022/07/09 02:23:16;;;;;;;;;3.00;3.00;;;;;22.49;70.87;100412.81;146622;592;46012;-78
2022/07/09 02:26:09;;;;;;;;;5.00;5.00;;;;;22.51;70.85;100417.22;146619;594;47012;-80
2022/07/09 02:29:01;;;;;;;;;4.33;3.33;;;;;22.53;71.35;100417.22;146618;652;46021;-86
2022/07/09 02:31:55;;;;;;;;;3.50;3.00;;;;;22.51;71.41;100409.28;146617;706;46014;-79
2022/07/09 02:34:47;;;;;;;;;3.67;3.00;;;;;22.45;71.15;100401.38;146621;575;46020;-76
2022/07/09 02:37:39;;;;;;;;;3.00;3.00;;;;;22.39;71.88;100403.16;146617;608;46014;-81
2022/07/09 02:40:31;;;;;;;;;2.00;2.00;;;;;22.31;71.48;100404.06;146617;588;46020;-80
2022/07/09 02:43:23;;;;;;;;;5.50;4.00;;;;;22.28;71.66;100408.47;146618;584;46013;-82
2022/07/09 02:46:16;;;;;;;;;3.00;3.00;;;;;22.30;72.00;100417.25;146618;604;46010;-82
2022/07/09 02:49:08;;;;;;;;;3.67;2.33;;;;;22.29;71.56;100408.44;146622;582;46012;-82
2022/07/09 02:52:01;;;;;;;;;2.33;2.33;;;;;22.30;71.95;100410.19;146621;676;46010;-81
2022/07/09 02:54:53;;;;;;;;;4.33;3.67;;;;;22.34;71.70;100398.78;146618;669;47012;-82
2022/07/09 02:57:45;;;;;;;;;4.67;3.67;;;;;22.37;72.00;100395.25;146615;664;46011;-81
2022/07/09 03:00:39;;;;;;;;;2.67;2.67;;;;;22.36;72.18;100385.53;146618;590;46016;-83
2022/07/09 03:03:31;;;;;;;;;3.00;3.00;;;;;22.33;71.86;100391.69;146621;569;46020;-82
2022/07/09 03:06:23;;;;;;;;;2.00;2.00;;;;;22.29;71.34;100392.59;146618;604;46017;-83
2022/07/09 03:09:16;;;;;;;;;4.50;4.00;;;;;22.28;71.20;100385.56;146622;563;46012;-82
2022/07/09 03:12:08;;;;;;;;;1.33;1.33;;;;;22.32;70.61;100383.78;146617;597;47012;-80
2022/07/09 03:15:00;;;;;;;;;5.25;5.00;;;;;22.36;71.15;100378.50;146621;577;46021;-79
2022/07/09 03:17:53;;;;;;;;;4.50;4.50;;;;;22.41;70.72;100385.53;146617;647;46016;-86
2022/07/09 03:20:45;;;;;;;;;7.00;3.33;;;;;22.45;71.07;100387.28;146623;599;46010;-86
2022/07/09 03:23:38;;;;;;;;;2.67;2.67;;;;;22.49;70.99;100389.03;146617;570;46016;-86
2022/07/09 03:26:30;;;;;;;;;4.00;4.00;;;;;22.48;72.14;100403.13;146616;584;46020;-90
2022/07/09 03:29:22;;;;;;;;;2.00;2.00;;;;;22.46;71.53;100415.44;146619;587;47014;-85
2022/07/09 03:32:14;;;;;;;;;4.00;2.00;;;;;22.46;70.77;100421.66;146620;699;46020;-78
2022/07/09 03:35:06;;;;;;;;;4.00;3.00;;;;;22.46;71.99;100421.66;146619;663;47013;-82
2022/07/09 03:37:58;;;;;;;;;4.67;3.67;;;;;22.39;71.78;100425.16;146620;663;46021;-85
2022/07/09 03:40:50;;;;;;;;;4.00;3.67;;;;;22.26;71.10;100426.94;146617;625;46021;-85
2022/07/09 03:43:43;;;;;;;;;3.00;3.00;;;;;22.16;72.51;100422.56;146620;564;46021;-86
2022/07/09 03:46:34;;;;;;;;;4.00;4.00;;;;;22.14;72.06;100427.78;146620;655;46016;-85
2022/07/09 03:49:27;;;;;;;;;4.00;4.00;;;;;22.17;71.96;100439.28;146622;707;47010;-86
2022/07/09 03:52:18;;;;;;;;;4.00;4.00;;;;;22.22;72.17;100437.53;146619;690;46014;-85
2022/07/09 03:55:11;;;;;;;;;2.33;2.33;;;;;22.28;72.16;100443.69;146618;567;46010;-84
2022/07/09 03:58:03;;;;;;;;;5.00;4.00;;;;;22.33;71.59;100446.31;146618;601;47013;-85
2022/07/09 04:00:56;;;;;;;;;4.25;4.25;;;;;22.41;71.88;100438.38;146622;614;46010;-84
2022/07/09 04:03:48;;;;;;;;;4.00;2.33;;;;;22.46;70.62;100441.88;146619;608;46017;-83
2022/07/09 04:06:40;;;;;;;;;3.67;2.33;;;;;22.46;70.54;100432.22;146623;576;46010;-84
2022/07/09 04:09:32;;;;;;;;;4.00;4.00;;;;;22.52;69.28;100431.28;146618;573;46034;-81
2022/07/09 04:12:25;;;;;;;;;2.67;2.67;;;;;22.56;69.69;100436.59;146621;627;46020;-80
2022/07/09 04:15:17;;;;;;;;;4.00;4.00;;;;;22.59;69.27;100443.63;146618;582;47012;-85
2022/07/09 04:18:09;;;;;;;;;3.67;3.67;;;;;22.16;69.88;100359.19;146620;585;46020;-82
2022/07/09 04:21:01;;;;;;;;;6.25;5.25;;;;;22.58;69.55;100447.13;146617;602;46017;-81
2022/07/09 04:23:55;;;;;;;;;4.00;4.00;;;;;22.60;69.90;100445.38;146619;604;46010;-84
2022/07/09 04:26:47;;;;;;;;;2.50;2.50;;;;;22.61;69.52;100441.84;146618;645;46016;-86
2022/07/09 04:29:39;;;;;;;;;4.00;4.00;;;;;22.67;69.39;100435.66;146621;622;46012;-82
2022/07/09 04:32:32;;;;;;;;;3.00;3.00;;;;;22.70;68.92;100446.22;146617;584;46037;-82
2022/07/09 04:35:24;;;;;;;;;3.00;3.00;;;;;22.73;68.49;100451.50;146621;582;47012;-80
2022/07/09 04:38:16;;;;;;;;;3.50;1.75;;;;;22.78;68.67;100447.97;146617;597;46016;-87
2022/07/09 04:41:09;;;;;;;;;4.75;3.75;;;;;22.87;68.54;100456.78;146622;648;46020;-78
2022/07/09 04:44:02;;;;;;;;;3.50;2.75;;;;;22.89;68.26;100457.63;146618;681;47012;-78
2022/07/09 04:46:54;;;;;;;;;3.33;3.33;;;;;22.92;68.30;100461.13;146623;569;46020;-76
2022/07/09 04:49:46;;;;;;;;;2.00;2.00;;;;;22.98;68.92;100461.16;146618;597;46916;-77
2022/07/09 04:52:38;;;;;;;;;3.00;3.00;;;;;22.96;67.62;100473.50;146617;582;46020;-77
2022/07/09 04:55:30;;;;;;;;;3.00;2.00;;;;;22.93;68.22;100472.59;146617;653;46916;-81
2022/07/09 04:58:23;;;;;;;;;3.00;3.00;;;;;22.86;68.97;100469.09;146620;578;47012;-76
2022/07/09 05:01:15;;;;;;;;;3.33;3.33;;;;;22.79;68.70;100470.00;146614;576;46016;-85
2022/07/09 05:04:08;;;;;;;;;2.00;2.00;;;;;22.75;68.61;100470.91;146620;584;47011;-78
2022/07/09 05:07:00;;;;;;;;;3.00;3.00;;;;;22.72;68.57;100465.62;146616;608;46916;-76
2022/07/09 05:09:52;;;;;;;;;3.00;3.00;;;;;22.70;68.33;100462.97;146620;590;46020;-76
2022/07/09 05:12:44;;;;;;;;;2.00;2.00;;;;;22.73;68.21;100462.09;146618;629;46017;-76
2022/07/09 05:15:36;;;;;;;;;2.33;1.33;;;;;22.78;68.64;100453.25;146624;658;46010;-74
2022/07/09 05:18:30;;;;;;;;;3.00;3.00;;;;;22.88;68.13;100451.47;146635;642;45916;-73
2022/07/09 05:21:22;;;;;;;;;4.67;3.00;;;;;22.95;68.42;100461.16;146637;614;45020;-78
2022/07/09 05:24:13;;;;;;;;;4.00;1.00;;;;;22.97;68.18;100456.75;146631;604;45916;-77
2022/07/09 05:27:06;;;;;;;;;3.00;3.00;;;;;22.99;68.21;100454.09;146638;616;45010;-73
2022/07/09 05:29:58;;;;;;;;;2.50;2.00;;;;;22.99;68.21;100454.09;146634;575;45916;-73
2022/07/09 05:32:51;;;;;;;;;4.33;3.00;;;;;22.98;68.33;100458.50;146637;614;45010;-73
2022/07/09 05:35:43;;;;;;;;;2.00;2.00;;;;;23.01;67.69;100470.84;146637;586;45016;-75
2022/07/09 05:38:36;;;;;;;;;3.00;3.00;;;;;23.00;67.47;100462.03;146636;577;45010;-74
2022/07/09 05:41:27;;;;;;;;;3.00;2.00;;;;;23.02;67.85;100468.19;146636;606;45016;-74
2022/07/09 05:44:20;;;;;;;;;2.00;2.00;;;;;23.02;67.42;100465.56;146637;576;46012;-74
2022/07/09 05:47:12;;;;;;;;;4.33;3.00;;;;;23.05;67.64;100457.63;146638;574;45012;-75
2022/07/09 05:50:04;;;;;;;;;4.75;4.00;;;;;23.11;66.94;100461.09;146636;593;45020;-75
2022/07/09 05:52:56;;;;;;;;;2.75;2.75;;;;;23.13;67.30;100452.28;146634;650;45016;-76
2022/07/09 05:55:49;;;;;;;;;3.00;3.00;;;;;23.18;67.54;100453.16;146635;565;45028;-76
2022/07/09 05:58:40;;;;;;;;;2.00;2.00;;;;;23.25;67.13;100449.56;146635;569;46012;-77
2022/07/09 06:01:38;;;;;;;;;5.00;4.00;;;;;23.31;66.77;100453.97;146641;563;44020;-77
2022/07/09 06:04:30;;;;;;;;;2.75;2.75;;;;;23.36;67.34;100452.16;146635;660;45014;-78
2022/07/09 06:07:22;;;;;;;;;3.00;1.25;;;;;23.37;66.56;100455.69;146635;563;45010;-75
2022/07/09 06:10:17;;;;;;;;;3.00;3.00;;;;;23.33;67.37;100461.88;146635;597;45017;-75
2022/07/09 06:13:09;;;;;;;;;3.00;3.00;;;;;23.33;67.43;100460.09;146636;590;45021;-71
2022/07/09 06:16:01;;;;;;;;;2.00;1.33;;;;;23.34;67.69;100453.06;146636;622;46016;-71
2022/07/09 06:18:53;;;;;;;;;3.33;2.67;;;;;23.33;68.05;100457.47;146617;717;46011;-71
2022/07/09 06:21:45;;;;;;;;;4.00;3.75;;;;;23.35;67.50;100457.47;146617;694;46014;-73
2022/07/09 06:24:38;;;;;;;;;4.00;3.00;;;;;23.30;68.99;100460.13;146620;621;46020;-73
2022/07/09 06:27:30;;;;;;;;;1.25;1.25;;;;;23.19;70.14;100468.13;146618;563;47012;-74
2022/07/09 06:30:22;;;;;;;;;1.67;1.00;;;;;23.01;69.79;100461.13;146622;618;46012;-86
2022/07/09 06:33:14;;;;;;;;;1.33;1.33;;;;;22.92;70.05;100476.12;146619;577;47014;-84
2022/07/09 06:36:07;;;;;;;;;1.75;1.75;;;;;22.82;70.77;100473.50;146621;576;46010;-85
2022/07/09 06:42:12;;;;;;;;;3.00;1.67;;;;;22.55;71.40;100476.22;146624;585;46022;-83
2022/07/09 06:45:04;;;;;;;;;3.33;2.33;;;;;22.42;72.30;100474.47;146618;565;46916;-81
2022/07/09 06:47:56;;;;;;;;;3.25;2.75;;;;;22.31;72.42;100469.22;146618;571;46010;-80
2022/07/09 06:50:48;;;;;;;;;4.00;2.00;;;;;22.20;73.56;100484.19;146618;573;47014;-88
2022/07/09 06:53:40;;;;;;;;;3.67;2.67;;;;;22.08;73.90;100482.38;146622;564;47010;-79
2022/07/09 06:56:32;;;;;;;;;3.00;3.00;;;;;22.00;74.38;100476.22;146617;570;46014;-75
2022/07/09 06:59:25;;;;;;;;;2.00;2.00;;;;;21.92;74.26;100474.44;146622;581;47010;-79
2022/07/09 07:02:18;;;;;;;;;3.00;2.75;;;;;21.88;74.99;100482.38;146615;571;46038;-79
2022/07/09 07:05:11;;;;;;;;;3.00;1.00;;;;;21.89;74.16;100497.31;146621;640;46034;-80
2022/07/09 07:08:03;;;;;;;;;1.67;1.00;;;;;21.90;74.94;100489.41;146619;564;46016;-76
2022/07/09 07:10:55;;;;;;;;;1.00;1.00;;;;;21.94;75.32;100490.28;146622;649;46010;-82
2022/07/09 07:13:47;;;;;;;;;1.00;1.00;;;;;21.92;75.90;100492.91;146618;650;46016;-82
2022/07/09 07:16:39;;;;;;;;;2.33;2.00;;;;;21.83;74.96;100505.22;146619;613;46010;-82
2022/07/09 07:19:31;;;;;;;;;0.67;0.67;;;;;21.75;74.97;100504.34;146619;589;45016;-83
2022/07/09 07:22:24;;;;;;;;;2.00;2.00;;;;;21.70;73.97;100501.69;146625;583;46010;-79
2022/07/09 07:25:15;;;;;;;;;1.00;1.00;;;;;21.79;73.11;100509.62;146620;582;46016;-80
2022/07/09 07:28:08;;;;;;;;;1.33;1.00;;;;;21.97;72.73;100505.25;146624;594;46023;-81
2022/07/09 07:31:00;;;;;;;;;0.67;0.67;;;;;22.19;72.08;100491.22;146619;590;46916;-81
2022/07/09 07:33:53;;;;;;;;;0.00;0.00;;;;;22.38;72.17;100486.81;146622;571;46021;-79
2022/07/09 07:36:45;;;;;;;;;1.00;1.00;;;;;22.38;72.80;100484.16;146620;564;45016;-80
2022/07/09 07:39:37;;;;;;;;;1.67;0.67;;;;;22.23;73.96;100492.09;146621;578;47011;-81
2022/07/09 07:42:29;;;;;;;;;1.00;1.00;;;;;22.06;73.96;100489.44;146620;580;46012;-81
2022/07/09 07:45:21;;;;;;;;;2.00;1.00;;;;;21.91;74.52;100488.53;146619;635;47010;-79
2022/07/09 07:48:14;;;;;;;;;0.00;0.00;;;;;21.78;74.87;100494.69;146620;577;46016;-78
2022/07/09 07:51:08;;;;;;;;;1.33;0.00;;;;;21.70;75.13;100495.53;146622;591;47010;-77
2022/07/09 07:54:00;;;;;;;;;1.00;1.00;;;;;21.70;75.85;100498.16;146620;648;46012;-77
2022/07/09 07:56:52;;;;;;;;;0.00;0.00;;;;;21.68;75.98;100504.34;146621;619;46020;-77
2022/07/09 07:59:46;;;;;;;;;0.00;0.00;;;;;21.68;74.52;100493.78;146617;592;46016;-77
2022/07/09 08:02:38;;;;;;;;;0.00;0.00;;;;;21.70;73.88;100490.25;146621;675;46021;-78
2022/07/09 08:05:31;;;;;;;;;0.00;0.00;;;;;21.75;73.69;100492.03;146617;642;46016;-78
2022/07/09 08:08:24;;;;;;;;;0.00;0.00;;;;;21.87;74.34;100493.81;146621;565;46020;-77
2022/07/09 08:11:15;;;;;;;;;0.00;0.00;;;;;21.90;74.10;100496.47;146621;583;47012;-78
2022/07/09 08:14:08;;;;;;;;;0.00;0.00;;;;;21.94;73.96;100499.97;146621;622;46012;-77
2022/07/09 08:17:00;;;;;;;;;0.00;0.00;;;;;21.99;75.26;100488.53;146619;614;47014;-76
2022/07/09 08:19:53;;;;;;;;;0.00;0.00;;;;;22.01;75.66;100493.81;146624;647;47010;-78
2022/07/09 08:22:44;;;;;;;;;0.00;0.00;;;;;21.99;76.29;100488.53;146618;588;46017;-79
2022/07/09 08:25:37;;;;;;;;;0.00;0.00;;;;;21.98;75.87;100478.84;146622;570;46020;-77
2022/07/09 08:28:29;;;;;;;;;0.00;0.00;;;;;21.97;76.37;100473.59;146619;641;46016;-76
2022/07/09 08:31:23;;;;;;;;;0.00;0.00;;;;;21.98;76.07;100468.28;146625;637;46011;-76
2022/07/09 08:34:15;;;;;;;;;0.00;0.00;;;;;22.10;76.32;100467.41;146620;671;46016;-77
2022/07/09 08:37:07;;;;;;;;;0.00;0.00;;;;;22.20;75.30;100465.69;146626;607;46010;-76
2022/07/09 08:39:59;;;;;;;;;0.67;0.67;;;;;22.25;74.57;100454.25;146621;604;46016;-77
2022/07/09 08:42:53;;;;;;;;;0.00;0.00;;;;;22.28;76.51;100456.00;146621;603;46030;-75
2022/07/09 08:45:49;;;;;;;;;0.00;0.00;;;;;22.30;76.24;100451.59;146620;570;46016;-72
2022/07/09 08:48:42;;;;;;;;;1.00;1.00;;;;;22.29;77.04;100441.91;146623;665;46010;-74
2022/07/09 08:51:35;;;;;;;;;1.33;0.67;;;;;22.23;76.60;100434.00;146619;641;46916;-74
2022/07/09 08:54:28;;;;;;;;;1.00;1.00;;;;;22.35;77.19;100444.53;146621;602;46021;-76
2022/07/09 08:57:20;;;;;;;;;2.00;2.00;;;;;22.41;77.20;100455.09;146617;564;46016;-79
2022/07/09 09:00:12;;;;;;;;;2.00;2.00;;;;;22.48;77.00;100453.34;146622;594;46010;-85
2022/07/09 09:03:04;;;;;;;;;1.33;1.33;;;;;22.54;77.57;100462.12;146621;649;46012;-82
2022/07/09 09:06:08;;;;;;;;;1.00;1.00;;;;;22.54;75.20;100454.19;146624;602;45026;-76
2022/07/09 09:09:00;;;;;;;;;1.00;0.00;;;;;22.57;78.40;100448.91;146620;593;46017;-81
2022/07/09 09:11:54;;;;;;;;;1.00;1.00;;;;;22.67;76.55;100451.53;146619;606;46010;-80
2022/07/09 09:14:53;;;;;;;;;2.67;2.67;;;;;22.78;76.68;100455.03;146619;600;46016;-85
2022/07/09 09:17:49;;;;;;;;;1.00;1.00;;;;;22.83;76.46;100443.56;146623;628;47010;-82
2022/07/09 09:20:48;;;;;;;;;3.00;2.00;;;;;22.85;77.25;100443.53;146614;572;46025;-75
2022/07/09 09:23:59;;;;;;;;;2.00;2.00;;;;;22.81;75.68;100449.72;146623;606;46012;-74
2022/07/09 09:26:53;;;;;;;;;2.00;2.00;;;;;22.79;76.48;100440.91;146618;603;46016;-76
2022/07/09 09:29:54;;;;;;;;;3.00;2.67;;;;;22.73;75.69;100422.44;146623;668;46021;-76
2022/07/09 09:32:46;;;;;;;;;3.33;2.00;;;;;22.66;75.90;100432.16;146620;589;46916;-72
2022/07/09 09:35:38;;;;;;;;;3.00;2.00;;;;;22.62;76.30;100448.00;146621;586;47012;-69
2022/07/09 09:38:30;;;;;;;;;1.00;1.00;;;;;22.56;76.27;100454.22;146619;573;46014;-77
2022/07/09 09:41:33;;;;;;;;;1.00;1.00;;;;;22.47;76.38;100448.94;146617;692;47010;-73
2022/07/09 09:44:39;;;;;;;;;3.00;3.00;;;;;22.36;76.29;100455.09;146620;567;46015;-76
2022/07/09 09:47:31;;;;;;;;;1.67;1.67;;;;;22.28;77.37;100453.38;146621;619;46020;-70
2022/07/09 09:50:26;;;;;;;;;1.33;1.33;;;;;22.23;76.61;100473.59;146621;625;46012;-75
2022/07/09 09:53:19;;;;;;;;;2.00;1.67;;;;;22.21;76.84;100472.72;146624;635;47010;-74
2022/07/09 09:56:13;;;;;;;;;1.00;1.00;;;;;22.17;76.25;100465.69;146618;569;46016;-74
2022/07/09 09:59:05;;;;;;;;;1.67;1.67;;;;;22.15;78.02;100460.37;146623;572;46010;-75
2022/07/09 10:01:57;;;;;;;;;2.67;2.33;;;;;22.13;78.21;100467.41;146621;609;45016;-74
2022/07/09 10:04:49;;;;;;;;;1.33;1.33;;;;;22.11;77.41;100462.12;146621;571;46020;-74
2022/07/09 10:07:43;;;;;;;;;1.33;1.33;;;;;22.06;78.88;100463.91;146615;569;46016;-75
2022/07/09 10:10:35;;;;;;;;;2.00;2.00;;;;;22.04;77.52;100459.50;146620;594;46020;-74
2022/07/09 10:13:27;;;;;;;;;2.00;2.00;;;;;22.04;77.83;100459.50;146619;633;46017;-74
2022/07/09 10:16:19;;;;;;;;;1.33;1.33;;;;;22.03;76.51;100474.47;146622;608;47020;-74
2022/07/09 10:19:11;;;;;;;;;1.00;1.00;;;;;22.02;76.99;100477.09;146620;565;47012;-74
2022/07/09 10:22:04;;;;;;;;;1.00;1.00;;;;;22.00;76.08;100478.88;146620;592;46020;-74
2022/07/09 10:24:56;;;;;;;;;1.00;1.00;;;;;21.98;76.81;100478.84;146620;572;46012;-74
2022/07/09 10:27:50;;;;;;;;;0.00;0.00;;;;;21.94;75.88;100487.66;146622;575;46010;-75
2022/07/09 10:30:42;;;;;;;;;1.67;1.67;;;;;21.93;76.11;100485.88;146617;669;46017;-75
2022/07/09 10:33:38;;;;;;;;;2.00;2.00;;;;;21.93;75.36;100488.50;146622;571;46020;-75
2022/07/09 10:36:32;;;;;;;;;1.00;1.00;;;;;21.95;75.67;100502.59;146619;578;46916;-75
2022/07/09 10:39:24;;;;;;;;;0.33;0.33;;;;;21.96;75.47;100488.53;146620;592;46020;-76
2022/07/09 10:42:26;;;;;;;;;1.67;1.33;;;;;21.97;74.94;100490.31;146619;642;46012;-76
2022/07/09 10:45:45;;;;;;;;;0.00;0.00;;;;;20.72;74.50;100256.22;146622;668;46021;-75
2022/07/09 10:48:37;;;;;;;;;1.33;1.00;;;;;21.95;76.81;100472.69;146620;598;46914;-74
2022/07/09 10:51:30;;;;;;;;;2.00;1.00;;;;;21.90;77.34;100477.97;146622;581;46013;-75
2022/07/09 10:54:22;;;;;;;;;1.00;1.00;;;;;21.82;77.30;100475.31;146618;612;46014;-74
2022/07/09 10:57:14;;;;;;;;;3.33;0.67;;;;;21.76;78.24;100472.66;146623;596;46020;-74
2022/07/09 11:00:07;;;;;;;;;1.00;1.00;;;;;21.68;77.77;100467.41;146618;649;47013;-74
2022/07/09 11:03:07;;;;;;;;;0.00;0.00;;;;;21.67;76.90;100459.47;146621;573;46020;-74
2022/07/09 11:06:00;;;;;;;;;1.33;1.33;;;;;21.68;77.51;100469.12;146617;569;46017;-74
2022/07/09 11:08:52;;;;;;;;;3.00;2.67;;;;;21.73;78.79;100470.03;146621;579;46010;-74
2022/07/09 11:11:49;;;;;;;;;2.00;2.00;;;;;21.74;79.57;100468.25;146617;594;46016;-74
2022/07/09 11:14:55;;;;;;;;;1.33;1.33;;;;;21.67;77.32;100476.16;146622;573;46021;-74
2022/07/09 11:17:47;;;;;;;;;2.00;2.00;;;;;21.71;77.29;100484.09;146619;590;46012;-75
2022/07/09 11:20:50;;;;;;;;;0.67;0.67;;;;;21.73;77.37;100491.13;146620;586;46020;-74
2022/07/09 11:23:42;;;;;;;;;1.33;1.33;;;;;21.78;76.95;100507.87;146619;569;46016;-75
2022/07/09 11:26:34;;;;;;;;;1.67;1.67;;;;;21.81;76.55;100496.44;146622;563;46010;-76
2022/07/09 11:29:26;;;;;;;;;0.33;0.33;;;;;21.81;78.83;100499.09;146621;578;46014;-75
2022/07/09 11:32:21;;;;;;;;;4.00;3.00;;;;;21.72;80.73;100480.59;146625;596;46020;-75
2022/07/09 11:35:15;;;;;;;;;1.00;1.00;;;;;21.61;80.74;100480.56;146619;565;46015;-75
2022/07/09 11:38:09;;;;;;;;;2.00;2.00;;;;;21.48;80.86;100466.47;146620;576;46021;-75
2022/07/09 11:41:05;;;;;;;;;3.00;3.00;;;;;21.34;82.67;100447.94;146619;641;46012;-75
2022/07/09 11:43:57;;;;;;;;;1.67;1.00;;;;;21.25;83.03;100450.53;146622;569;46020;-75
2022/07/09 11:46:49;;;;;;;;;2.00;2.00;;;;;21.21;82.55;100456.66;146616;629;47014;-75
2022/07/09 11:49:50;;;;;;;;;3.00;2.00;;;;;21.17;84.24;100433.81;146622;618;46010;-76
2022/07/09 11:52:53;;;;;;;;;4.67;3.33;;;;;21.15;84.03;100443.44;146616;635;46016;-75
2022/07/09 11:55:45;;;;;;;;;3.00;3.00;;;;;21.11;84.54;100428.50;146619;597;46020;-75
2022/07/09 11:58:37;;;;;;;;;2.00;2.00;;;;;21.10;85.53;100440.81;146619;564;46017;-76
2022/07/09 12:01:30;;;;;;;;;3.00;3.00;;;;;21.10;86.28;100417.09;146622;656;46020;-75
2022/07/09 12:04:23;;;;;;;;;5.00;4.00;;;;;21.18;84.91;100415.38;146620;683;46012;-75
2022/07/09 12:07:15;;;;;;;;;6.00;5.00;;;;;21.28;83.65;100413.63;146617;678;47010;-76
2022/07/09 12:10:09;;;;;;;;;5.00;5.00;;;;;21.41;82.93;100406.66;146621;586;46012;-75
2022/07/09 12:13:02;;;;;;;;;8.00;5.50;;;;;21.45;83.27;100419.84;146621;693;46011;-74
2022/07/09 12:15:54;;;;;;;;;5.33;4.33;;;;;21.55;81.74;100412.81;146616;569;47012;-74
2022/07/09 12:18:46;;;;;;;;;5.00;4.00;;;;;21.68;79.53;100408.44;146636;569;45025;-75
2022/07/09 12:21:38;;;;;;;;;6.00;6.00;;;;;21.82;81.13;100426.94;146637;635;45016;-75
2022/07/09 12:24:30;;;;;;;;;8.75;6.00;;;;;21.91;79.53;100429.59;146636;675;44050;-75
2022/07/09 12:27:23;;;;;;;;;5.67;4.67;;;;;21.98;79.52;100439.25;146635;564;45017;-74
2022/07/09 12:30:15;;;;;;;;;6.00;6.00;;;;;22.01;78.81;100441.03;146636;600;45033;-75
2022/07/09 12:33:07;;;;;;;;;5.67;5.67;;;;;21.99;79.25;100432.22;146630;655;47917;-75
2022/07/09 12:35:59;;;;;;;;;6.00;4.67;;;;;21.97;78.88;100437.50;146638;574;44024;-75
2022/07/09 12:38:51;;;;;;;;;6.00;5.67;;;;;21.93;79.31;100435.72;146636;577;45012;-76
2022/07/09 12:41:43;;;;;;;;;6.00;6.00;;;;;21.93;79.35;100446.28;146635;578;45010;-76
2022/07/09 12:44:36;;;;;;;;;8.00;7.00;;;;;21.93;79.23;100435.72;146633;570;46014;-75
2022/07/09 12:47:28;;;;;;;;;7.00;7.00;;;;;21.90;80.12;100430.47;146637;647;45010;-75
2022/07/09 12:50:20;;;;;;;;;8.00;7.00;;;;;21.82;80.11;100421.66;146634;635;45016;-76
2022/07/09 12:53:12;;;;;;;;;7.00;6.00;;;;;21.76;80.55;100413.75;146636;599;45010;-75
2022/07/09 12:56:04;;;;;;;;;6.25;6.00;;;;;21.73;80.20;100421.66;146635;602;45012;-76
2022/07/09 12:58:57;;;;;;;;;8.33;6.67;;;;;21.73;79.39;100413.72;146637;572;45010;-75
2022/07/09 13:01:49;;;;;;;;;7.25;7.25;;;;;21.74;78.81;100420.75;146633;663;45916;-75
2022/07/09 13:04:41;;;;;;;;;5.50;5.50;;;;;21.75;77.48;100439.25;146631;608;45030;-75
2022/07/09 13:07:33;;;;;;;;;9.50;8.00;;;;;21.79;76.82;100450.69;146634;565;45012;-76
2022/07/09 13:10:26;;;;;;;;;7.00;6.50;;;;;21.75;78.83;100430.47;146637;651;45010;-75
2022/07/09 13:13:17;;;;;;;;;7.75;6.25;;;;;21.66;78.44;100442.75;146635;651;45017;-76
2022/07/09 13:16:10;;;;;;;;;8.00;8.00;;;;;21.56;80.61;100434.84;146635;684;45010;-77
2022/07/09 13:19:02;;;;;;;;;6.75;6.75;;;;;21.44;80.18;100431.28;146614;614;47016;-75
2022/07/09 13:21:54;;;;;;;;;8.00;6.75;;;;;21.34;81.43;100416.28;146621;667;46020;-76
2022/07/09 13:24:47;;;;;;;;;8.00;8.00;;;;;21.28;80.73;100404.81;146618;605;46016;-76
2022/07/09 13:27:39;;;;;;;;;6.50;6.50;;;;;21.21;82.17;100402.19;146622;677;46021;-76